Cincinnati, Ohio
Traffic Map
Current Weather Conditions
Cincinnati, Ohio
Overcast
Overcast
17°
Feels Like: 3°
Wind Chill: Ceiling: 10000
Heat Index: 17° Visibility: 10mi
Dew Point: 10° Wind: 14mph
Humidity: 74% Direction: 270° (W)
Pressure: 29.97in Gusts: 0mph
Raw Report DataKLUK 100839Z AUTO 27012KT 10SM SCT023 SCT031 OVC100 M08/M12 A2997 RMK AO2 SNB03E19 P0000 T10831122
Traffic Incident Summary
Active as of:
Severity:
Category:
InformationThere was an issue retrieving the traffic information for this location. Please try a different location or try again shortly.
Advertisements
Track Severe Weather on mobile